航空気象通報

ウインドサーファーのための航空気象通報による風予報です。

8/8-8/10の航空気象通報

2017年08月09日 00時13分48秒 | TAF
羽田空港
TAF RJTT 081113Z 0812/0918 27004KT 9999 FEW025
BECMG 0900/0903 16010KT
BECMG 0909/0912 36010KT
日本時間8日21時-9日09時:270度から4ノットの風
09-12時:風が変化
12-18時:160度から10ノットの風
18-21時:風が変化
21時-10日03時:360度から10ノットの風


静岡空港
TAF RJNS 081110Z 0812/0918 26016KT 9999 FEW020
TEMPO 0903/0909 26022G32KT
日本時間8日21時-10日03時:260度から16ノットの風
但し、9日12-18時の間:ときどき260度から22ノットの風、突風32ノット


福岡空港
TAF RJFF 081109Z 0812/0918 15006KT 9999 FEW030
TEMPO 0822/0900 3000 TSRA BR FEW006 SCT010 BKN020 FEW025CB
TEMPO 0900/0903 18016G26KT 4000 -SHRA BR
BECMG 0906/0909 26009KT
BECMG 0912/0915 21005KT
日本時間8日21時-9日15時:150度から6ノットの風
但し、9日09-12時の間:ときどき180度から16ノット、突風26ノット
15-18時:風が変化
18-21時:260度から9ノットの風
21-24時:風が変化
10日00-03時:210度から5ノットの風

但し、9日07-09時の間:ときどき
但し、9日09-12時の間:ときどき

那覇空港
TAF AMD ROAH 081224Z 0812/0918 23012KT 9999 FEW015 SCT025
TEMPO 0812/0815 TSRA FEW010 SCT020 FEW025CB
TEMPO 0903/0909 SHRA FEW010 SCT020 FEW025CB
日本時間8日21時-10日03時:230度から12ノットの風

但し、8日21-24時の間:時々
但し、9日12-18時の間:時々

石垣空港
TAF ROIG 081109Z 0812/0918 22014KT 9999 FEW015 SCT025
日本時間8日21時-10日03時:220度から14ノットの風


マウイのカフルイ空港
PHOG 081123Z 0812/0912 05009KT P6SM FEW025 SCT050
FM082000 05020G28KT P6SM FEW030 SCT050
FM090500 05014KT P6SM FEW025 SCT050
FM090900 04008KT P6SM FEW025 FEW050 AMD LTD TO VIS AND WIND TIL 081600
ハワイ時間8日02-10時:050度から9ノットの風
10-19時:050度から20ノット、突風28ノット
19-23時:050度から14ノットの風
23時-9日02時:040度から8ノットの風


サイパン空港
TAF PGSN 081120Z 0812/0912 11005KT P6SM VCSH SCT020 OVC100
マリアナ時間8日22時-9日22時:110度から5ノットの風

ジャンル:
お天気
コメント   この記事についてブログを書く
この記事をはてなブックマークに追加
« 8/6-8/8の航空気象通報 | トップ | 8/9-8/11の航空気象通報 »
最近の画像もっと見る

コメントを投稿

ブログ作成者から承認されるまでコメントは反映されません。

TAF」カテゴリの最新記事

トラックバック

この記事のトラックバック  Ping-URL
ブログ作成者から承認されるまでトラックバックは反映されません。
  • 30日以上前の記事に対するトラックバックは受け取らないよう設定されております。
  • 送信元の記事内容が半角英数のみのトラックバックは受け取らないよう設定されております。
  • このブログへのリンクがない記事からのトラックバックは受け取らないよう設定されております。
  • ※ブログ管理者のみ、編集画面で設定の変更が可能です。